Time;durP1;ratioP1;P1;durP2;ratioP2;P2;SDS_P1;SDS_P2;PMS_P1;PMS_P2;Temp;Humidity;BMP_temperature;BMP_pressure;BME280_temperature;BME280_humidity;BME280_pressure;Samples;Min_cycle;Max_cycle;Signal;HPM_P1;HPM_P2
2022/11/25 00:02:52;;;;;;;164.80;86.83;;;2.10;99.90;;;;;;8370592;28;20173;-79
2022/11/25 00:06:53;;;;;;;150.40;82.13;;;2.10;99.90;;;;;;8373391;28;20218;-78
2022/11/25 00:10:54;;;;;;;118.77;58.10;;;2.10;99.90;;;;;;8372921;28;20185;-80
2022/11/25 00:14:55;;;;;;;102.57;55.60;;;2.10;99.90;;;;;;8372716;28;20202;-79
2022/11/25 00:18:56;;;;;;;120.50;61.17;;;2.00;99.90;;;;;;8368022;28;20591;-79
2022/11/25 00:22:57;;;;;;;96.93;49.13;;;2.00;99.90;;;;;;8369196;28;20289;-79
2022/11/25 00:26:58;;;;;;;79.53;41.37;;;1.90;99.90;;;;;;8367977;28;20210;-78
2022/11/25 00:31:09;;;;;;;77.57;41.47;;;2.00;99.90;;;;;;8371185;28;20196;-79
2022/11/25 00:35:09;;;;;;;80.93;42.53;;;2.00;99.90;;;;;;8368929;28;20203;-81
2022/11/25 00:39:15;;;;;;;89.13;46.30;;;2.10;99.90;;;;;;8373465;28;20268;-79
2022/11/25 00:47:36;;;;;;;83.63;45.90;;;2.20;99.90;;;;;;8372090;28;20187;-80
2022/11/25 00:51:38;;;;;;;81.90;46.67;;;2.30;99.90;;;;;;8369211;28;20178;-79
2022/11/25 00:59:57;;;;;;;106.57;58.43;;;2.30;99.90;;;;;;8369612;28;20257;-79
2022/11/25 01:03:58;;;;;;;105.47;58.73;;;2.30;99.90;;;;;;8365393;28;20180;-79
2022/11/25 01:07:59;;;;;;;102.67;58.33;;;2.30;99.90;;;;;;8373108;28;20280;-79
2022/11/25 01:12:00;;;;;;;102.90;54.57;;;2.30;99.90;;;;;;8365618;28;20182;-79
2022/11/25 01:16:05;;;;;;;89.97;50.57;;;2.30;99.90;;;;;;8370502;28;20206;-79
2022/11/25 01:20:07;;;;;;;121.03;62.97;;;2.40;99.90;;;;;;8371382;28;20242;-79
2022/11/25 01:24:09;;;;;;;112.03;60.20;;;2.40;99.90;;;;;;8365057;28;20273;-79
2022/11/25 01:28:10;;;;;;;102.23;57.00;;;2.50;99.90;;;;;;8362511;28;20193;-79
2022/11/25 01:32:10;;;;;;;110.13;58.23;;;2.50;99.90;;;;;;8371844;28;20185;-79
2022/11/25 01:36:14;;;;;;;105.57;57.73;;;2.50;99.90;;;;;;8371004;28;20193;-80
2022/11/25 01:40:16;;;;;;;92.43;53.80;;;2.60;99.90;;;;;;8356942;28;20240;-79
2022/11/25 01:44:19;;;;;;;82.53;47.93;;;2.60;99.90;;;;;;8373783;28;20191;-79
2022/11/25 01:48:30;;;;;;;78.53;45.13;;;2.60;99.90;;;;;;8367122;28;20280;-79
2022/11/25 01:52:36;;;;;;;81.23;44.30;;;2.60;99.90;;;;;;8365302;28;20270;-79
2022/11/25 01:57:07;;;;;;;76.23;43.27;;;2.60;99.90;;;;;;8362919;28;20212;-77
2022/11/25 02:01:07;;;;;;;74.13;44.50;;;2.60;99.90;;;;;;8370497;28;20200;-77
2022/11/25 02:05:12;;;;;;;74.50;42.23;;;2.60;99.90;;;;;;8371044;28;20182;-77
2022/11/25 02:09:14;;;;;;;68.07;40.53;;;2.60;99.90;;;;;;8369107;28;20178;-77
2022/11/25 02:13:15;;;;;;;63.20;35.60;;;2.60;99.90;;;;;;8370592;28;20190;-78
2022/11/25 02:17:16;;;;;;;77.03;42.70;;;2.60;99.90;;;;;;8363703;28;20193;-77
2022/11/25 02:21:23;;;;;;;76.43;44.40;;;2.70;99.90;;;;;;8365856;28;20185;-77
2022/11/25 02:25:27;;;;;;;94.30;50.00;;;2.70;99.90;;;;;;8372055;28;20173;-78
2022/11/25 02:29:29;;;;;;;84.10;45.87;;;2.70;99.90;;;;;;8372893;28;20197;-77
2022/11/25 02:33:30;;;;;;;78.57;44.33;;;2.70;99.90;;;;;;8371569;28;20248;-78
2022/11/25 02:37:31;;;;;;;66.70;38.43;;;2.70;99.90;;;;;;8368015;28;20209;-78
2022/11/25 02:41:36;;;;;;;56.03;31.80;;;2.70;99.90;;;;;;8377786;28;20205;-77
2022/11/25 02:45:49;;;;;;;50.77;29.37;;;2.60;99.90;;;;;;8380376;28;20243;-78
2022/11/25 02:49:49;;;;;;;50.27;28.80;;;2.60;99.90;;;;;;8372310;28;20218;-78
2022/11/25 02:53:51;;;;;;;55.20;29.03;;;2.60;99.90;;;;;;8379360;28;20180;-77
2022/11/25 02:57:51;;;;;;;41.30;26.33;;;2.60;99.90;;;;;;8371626;28;20214;-78
2022/11/25 03:01:52;;;;;;;41.23;24.33;;;2.60;99.90;;;;;;8368291;28;20230;-78
2022/11/25 03:05:53;;;;;;;39.33;23.83;;;2.60;99.90;;;;;;8372760;28;20255;-78
2022/11/25 03:09:54;;;;;;;78.83;47.03;;;2.60;99.90;;;;;;8369602;28;20189;-78
2022/11/25 03:13:55;;;;;;;85.90;48.27;;;2.50;99.90;;;;;;8373904;28;20230;-78
2022/11/25 03:17:56;;;;;;;93.40;54.83;;;2.40;99.90;;;;;;8373950;28;20257;-78
2022/11/25 03:21:57;;;;;;;87.40;49.90;;;2.40;99.90;;;;;;8373017;28;20182;-78
2022/11/25 03:25:57;;;;;;;78.33;42.10;;;2.30;99.90;;;;;;8365574;28;20281;-78
2022/11/25 03:29:58;;;;;;;58.47;36.07;;;2.30;99.90;;;;;;8373087;28;20202;-78
2022/11/25 03:33:59;;;;;;;62.47;35.87;;;2.20;99.90;;;;;;8376563;28;20592;-78
2022/11/25 03:38:00;;;;;;;72.60;40.97;;;2.20;99.90;;;;;;8372705;28;20214;-78
2022/11/25 03:42:00;;;;;;;74.33;41.70;;;2.20;99.90;;;;;;8366188;28;20185;-78
2022/11/25 03:46:01;;;;;;;70.90;40.23;;;2.20;99.90;;;;;;8371564;28;20192;-78
2022/11/25 03:50:02;;;;;;;60.53;35.60;;;2.20;99.90;;;;;;8376474;28;20192;-79
2022/11/25 03:54:04;;;;;;;56.67;33.33;;;2.30;99.90;;;;;;8384545;28;20182;-78
2022/11/25 03:58:04;;;;;;;61.13;34.73;;;2.30;99.90;;;;;;8372069;28;20213;-78
2022/11/25 04:02:05;;;;;;;50.40;30.80;;;2.30;99.90;;;;;;8367919;28;20312;-78
2022/11/25 04:06:06;;;;;;;55.93;31.80;;;2.30;99.90;;;;;;8372491;28;20189;-78
2022/11/25 04:10:08;;;;;;;47.20;30.13;;;2.30;99.90;;;;;;8369738;28;20193;-78
2022/11/25 04:14:09;;;;;;;50.10;29.50;;;2.20;99.90;;;;;;8379870;28;20358;-78
2022/11/25 04:18:09;;;;;;;53.83;29.67;;;2.20;99.90;;;;;;8369457;28;20218;-78
2022/11/25 04:22:10;;;;;;;77.67;42.07;;;2.10;99.90;;;;;;8365418;28;20183;-79
2022/11/25 04:26:12;;;;;;;57.97;34.30;;;2.00;99.90;;;;;;8366690;28;20216;-78
2022/11/25 04:30:13;;;;;;;49.43;29.70;;;2.00;99.90;;;;;;8364837;28;20221;-78
2022/11/25 04:34:14;;;;;;;45.10;27.33;;;2.00;99.90;;;;;;8368053;28;20218;-78
2022/11/25 04:38:15;;;;;;;45.90;28.07;;;2.00;99.90;;;;;;8366340;28;20209;-78
2022/11/25 04:42:31;;;;;;;52.77;29.17;;;2.00;99.90;;;;;;8371242;28;20269;-78
2022/11/25 04:46:37;;;;;;;42.27;24.87;;;2.10;99.90;;;;;;8368823;28;20213;-78
2022/11/25 04:50:38;;;;;;;38.80;22.23;;;2.20;99.90;;;;;;8372983;28;20225;-78
2022/11/25 04:54:38;;;;;;;34.63;19.83;;;2.40;99.90;;;;;;8371304;28;20211;-78
2022/11/25 05:03:00;;;;;;;32.00;21.00;;;2.70;99.90;;;;;;8367816;28;20193;-78
2022/11/25 05:07:01;;;;;;;32.83;18.57;;;2.70;99.90;;;;;;8365622;28;20188;-77
2022/11/25 05:11:02;;;;;;;22.30;15.30;;;2.90;99.90;;;;;;8368012;28;20185;-77
2022/11/25 05:15:04;;;;;;;24.17;14.17;;;3.00;99.90;;;;;;8370144;28;20208;-78
2022/11/25 05:19:05;;;;;;;39.70;18.47;;;3.20;99.90;;;;;;8382825;28;20207;-77
2022/11/25 05:23:06;;;;;;;29.03;19.40;;;3.40;99.90;;;;;;8366874;28;20181;-78
2022/11/25 05:27:07;;;;;;;29.67;20.00;;;3.70;99.90;;;;;;8360274;28;20468;-78
2022/11/25 05:31:07;;;;;;;33.80;20.63;;;3.90;99.90;;;;;;8369775;28;20198;-77
2022/11/25 05:35:08;;;;;;;25.53;17.93;;;4.00;99.90;;;;;;8367238;28;20238;-78
2022/11/25 05:39:09;;;;;;;29.53;17.60;;;4.00;99.90;;;;;;8364095;28;20181;-77
2022/11/25 05:43:10;;;;;;;61.17;33.10;;;4.10;99.90;;;;;;8364902;28;20207;-78
2022/11/25 05:47:10;;;;;;;48.27;29.70;;;4.00;99.90;;;;;;8365695;28;20177;-77
2022/11/25 05:51:11;;;;;;;35.63;22.77;;;3.90;99.90;;;;;;8366327;28;20208;-78
2022/11/25 05:55:12;;;;;;;29.67;19.47;;;3.90;99.90;;;;;;8369963;28;20239;-78
2022/11/25 05:59:13;;;;;;;26.13;18.13;;;3.90;99.90;;;;;;8366088;28;20356;-78
2022/11/25 06:03:14;;;;;;;47.50;29.90;;;3.90;99.90;;;;;;8367955;28;20186;-78
2022/11/25 06:07:14;;;;;;;111.77;63.20;;;3.90;99.90;;;;;;8376199;28;20185;-78
2022/11/25 06:11:17;;;;;;;108.70;57.77;;;3.90;99.90;;;;;;8374540;28;20217;-78
2022/11/25 06:15:17;;;;;;;94.80;50.63;;;3.80;99.90;;;;;;8378535;28;20204;-78
2022/11/25 06:19:18;;;;;;;78.23;49.07;;;3.70;99.90;;;;;;8374587;28;20584;-78
2022/11/25 06:23:19;;;;;;;85.97;48.07;;;3.60;99.90;;;;;;8372631;28;20597;-78
2022/11/25 06:27:20;;;;;;;102.90;56.57;;;3.60;99.90;;;;;;8372169;28;20181;-78
2022/11/25 06:31:23;;;;;;;97.27;53.87;;;3.60;99.90;;;;;;8372153;28;20193;-78
2022/11/25 06:35:24;;;;;;;93.17;51.10;;;3.50;99.90;;;;;;8369713;28;20626;-78
2022/11/25 06:39:24;;;;;;;86.07;49.63;;;3.50;99.90;;;;;;8374339;28;20193;-78
2022/11/25 06:43:25;;;;;;;66.20;42.73;;;3.50;99.90;;;;;;8375475;28;20508;-78
2022/11/25 06:47:26;;;;;;;73.93;43.60;;;3.50;99.90;;;;;;8375518;28;20193;-77
2022/11/25 06:51:27;;;;;;;66.50;39.80;;;3.50;99.90;;;;;;8373635;28;20185;-77
2022/11/25 06:55:27;;;;;;;65.60;38.93;;;3.50;99.90;;;;;;8377375;28;20224;-78
2022/11/25 06:59:28;;;;;;;68.63;39.23;;;3.50;99.90;;;;;;8373746;28;20209;-78
2022/11/25 07:03:29;;;;;;;65.07;37.07;;;3.50;99.90;;;;;;8372974;28;20190;-78
2022/11/25 07:07:30;;;;;;;56.10;37.13;;;3.50;99.90;;;;;;8365862;28;20185;-78
2022/11/25 07:11:36;;;;;;;61.83;39.17;;;3.50;99.90;;;;;;8373070;28;20288;-78
2022/11/25 07:15:37;;;;;;;58.47;36.57;;;3.50;99.90;;;;;;8367008;28;20206;-78
2022/11/25 07:19:38;;;;;;;65.90;37.77;;;3.60;99.90;;;;;;8376737;28;20189;-79
2022/11/25 07:23:39;;;;;;;62.83;36.83;;;3.60;99.90;;;;;;8372759;28;20184;-79
2022/11/25 07:27:40;;;;;;;62.90;38.53;;;3.70;99.90;;;;;;8372808;28;20436;-79
2022/11/25 07:31:43;;;;;;;61.83;37.40;;;3.70;99.90;;;;;;8373489;28;20243;-78
2022/11/25 07:35:44;;;;;;;49.43;33.20;;;3.80;99.90;;;;;;8369512;28;20205;-78
2022/11/25 07:39:45;;;;;;;49.47;30.10;;;3.90;99.90;;;;;;8368985;28;20189;-78
2022/11/25 07:43:52;;;;;;;39.23;25.37;;;3.90;99.90;;;;;;8375444;28;20181;-78
2022/11/25 07:47:53;;;;;;;41.07;24.33;;;4.00;99.90;;;;;;8371393;28;20182;-78
2022/11/25 07:51:56;;;;;;;38.97;24.17;;;4.10;99.90;;;;;;8374932;28;20224;-78
2022/11/25 07:56:01;;;;;;;36.23;23.80;;;4.10;99.90;;;;;;8376560;28;20308;-78
2022/11/25 08:00:02;;;;;;;31.37;21.40;;;4.20;99.90;;;;;;8374936;28;20294;-78
2022/11/25 08:04:03;;;;;;;32.73;20.73;;;4.20;99.90;;;;;;8376652;28;20220;-78
2022/11/25 08:08:04;;;;;;;36.17;22.23;;;4.30;99.90;;;;;;8370336;28;20192;-78
2022/11/25 08:12:05;;;;;;;46.00;29.23;;;4.40;99.90;;;;;;8369973;28;20286;-78
2022/11/25 08:16:07;;;;;;;60.50;33.43;;;4.50;99.90;;;;;;8374628;28;20232;-77
2022/11/25 08:20:08;;;;;;;81.73;47.43;;;4.70;99.90;;;;;;8369774;28;20181;-78
2022/11/25 08:24:18;;;;;;;102.93;56.57;;;4.90;99.90;;;;;;8371411;28;20211;-78
2022/11/25 08:28:18;;;;;;;111.27;55.40;;;5.10;99.90;;;;;;8376451;28;20230;-79
2022/11/25 08:32:19;;;;;;;115.00;57.50;;;5.30;99.90;;;;;;8367077;28;20183;-78
2022/11/25 08:36:22;;;;;;;112.00;60.70;;;5.50;99.90;;;;;;8368339;28;20286;-79
2022/11/25 08:40:22;;;;;;;115.23;62.00;;;5.70;99.90;;;;;;8367457;28;20179;-79
2022/11/25 08:44:27;;;;;;;140.10;71.93;;;5.80;99.90;;;;;;8370790;28;20193;-79
2022/11/25 08:48:27;;;;;;;115.07;65.43;;;6.00;99.90;;;;;;8373576;28;20213;-79
2022/11/25 08:52:28;;;;;;;117.23;61.23;;;6.10;99.90;;;;;;8367677;28;20443;-78
2022/11/25 08:56:29;;;;;;;101.63;56.73;;;6.20;99.90;;;;;;8370625;28;20501;-78
2022/11/25 09:00:30;;;;;;;97.23;54.50;;;6.30;99.90;;;;;;8366651;28;20190;-79
2022/11/25 09:04:31;;;;;;;73.07;44.20;;;6.50;99.90;;;;;;8373964;28;20182;-78
2022/11/25 09:08:32;;;;;;;49.93;31.07;;;6.70;99.90;;;;;;8383246;28;20190;-78
2022/11/25 09:12:33;;;;;;;38.83;25.77;;;6.80;99.90;;;;;;8374970;28;20185;-79
2022/11/25 09:16:34;;;;;;;29.63;18.13;;;7.00;99.90;;;;;;8366537;28;20329;-78
2022/11/25 09:20:38;;;;;;;34.00;21.33;;;7.20;99.90;;;;;;8370082;28;20181;-78
2022/11/25 09:24:40;;;;;;;28.30;18.70;;;7.30;99.90;;;;;;8369681;28;20186;-78
2022/11/25 09:28:41;;;;;;;20.80;14.17;;;7.50;99.90;;;;;;8371261;28;20201;-78
2022/11/25 09:32:42;;;;;;;16.43;12.07;;;7.60;99.90;;;;;;8366670;28;20293;-79
2022/11/25 09:36:43;;;;;;;15.80;11.17;;;7.80;99.90;;;;;;8364739;28;20248;-78
2022/11/25 09:40:58;;;;;;;14.93;9.83;;;8.00;99.90;;;;;;8366172;28;20185;-78
2022/11/25 09:49:29;;;;;;;15.77;9.30;;;8.20;99.90;;;;;;8366012;28;20243;-78
2022/11/25 09:53:47;;;;;;;17.33;9.33;;;8.40;99.90;;;;;;8371349;28;20210;-78
2022/11/25 09:58:00;;;;;;;15.30;9.33;;;8.40;99.90;;;;;;8364536;28;20218;-78
2022/11/25 10:02:24;;;;;;;13.00;8.77;;;8.60;99.90;;;;;;8369348;28;20257;-78
2022/11/25 10:06:29;;;;;;;16.03;9.80;;;8.70;99.90;;;;;;8366150;28;20191;-78
2022/11/25 10:10:39;;;;;;;13.87;8.57;;;8.80;99.90;;;;;;8369387;28;20182;-79
2022/11/25 10:14:47;;;;;;;12.33;8.20;;;9.00;99.90;;;;;;8367315;28;20187;-79
2022/11/25 10:19:13;;;;;;;8.93;6.97;;;9.10;99.90;;;;;;8366809;28;20215;-79
2022/11/25 10:23:26;;;;;;;11.97;8.20;;;9.20;99.90;;;;;;8362481;28;20338;-78
2022/11/25 10:27:55;;;;;;;10.63;7.67;;;9.30;99.90;;;;;;8370054;28;20196;-78
2022/11/25 10:32:24;;;;;;;13.10;7.27;;;9.40;99.90;;;;;;8367027;28;20219;-78
2022/11/25 10:36:32;;;;;;;11.17;6.83;;;9.50;99.90;;;;;;8381964;28;20240;-78
2022/11/25 10:40:33;;;;;;;11.67;7.30;;;9.60;99.90;;;;;;8373034;28;20182;-78
2022/11/25 10:44:36;;;;;;;15.50;8.20;;;9.40;99.90;;;;;;8364130;28;20250;-79
2022/11/25 10:49:10;;;;;;;12.07;8.37;;;9.20;99.90;;;;;;8368484;28;20193;-78
2022/11/25 10:53:16;;;;;;;12.93;8.73;;;9.10;99.90;;;;;;8375121;28;20210;-79
2022/11/25 10:57:19;;;;;;;14.33;9.40;;;9.10;99.90;;;;;;8372865;28;20508;-79
2022/11/25 11:01:24;;;;;;;12.83;8.70;;;9.20;99.90;;;;;;8380804;28;20386;-80
2022/11/25 11:05:29;;;;;;;13.00;8.43;;;9.50;99.90;;;;;;8374753;28;20329;-79
2022/11/25 11:09:36;;;;;;;13.00;7.77;;;9.80;99.90;;;;;;8390546;28;20184;-79
2022/11/25 11:13:38;;;;;;;10.07;7.83;;;9.90;99.90;;;;;;8375020;28;20290;-80
2022/11/25 11:17:39;;;;;;;14.47;8.13;;;9.90;99.90;;;;;;8381662;28;20216;-79
2022/11/25 11:21:41;;;;;;;11.20;6.47;;;9.80;99.90;;;;;;8380449;28;20195;-80
2022/11/25 11:26:03;;;;;;;12.97;6.57;;;9.80;99.90;;;;;;8369529;28;20201;-80
2022/11/25 11:30:15;;;;;;;11.40;5.97;;;9.80;99.90;;;;;;8370335;28;20197;-79
2022/11/25 11:34:34;;;;;;;11.80;5.83;;;10.00;99.90;;;;;;8376668;28;20185;-80
2022/11/25 11:39:04;;;;;;;10.07;5.37;;;10.20;99.90;;;;;;8370336;28;20200;-80
2022/11/25 11:43:26;;;;;;;10.00;5.40;;;10.50;99.90;;;;;;8373670;28;20277;-80
2022/11/25 11:47:41;;;;;;;9.03;4.53;;;10.70;30.80;;;;;;8373145;28;20188;-80
2022/11/25 11:52:19;;;;;;;8.20;5.07;;;10.90;48.60;;;;;;8377800;28;20224;-80
2022/11/25 11:56:40;;;;;;;7.40;5.23;;;10.90;56.10;;;;;;8377790;28;20220;-80
2022/11/25 12:01:08;;;;;;;8.93;4.20;;;10.90;1.00;;;;;;8371007;28;20253;-79
2022/11/25 12:05:08;;;;;;;7.60;3.90;;;10.80;1.00;;;;;;8369381;28;20247;-80
2022/11/25 12:09:15;;;;;;;8.73;4.27;;;10.50;1.00;;;;;;8371024;28;20193;-80
2022/11/25 12:13:37;;;;;;;9.37;3.90;;;10.20;54.10;;;;;;8371309;28;20224;-79
2022/11/25 12:17:49;;;;;;;8.37;4.47;;;9.90;99.90;;;;;;8371931;28;20224;-79
2022/11/25 12:22:13;;;;;;;9.00;3.80;;;9.70;99.90;;;;;;8372319;28;20187;-80
2022/11/25 12:26:23;;;;;;;6.80;4.20;;;9.60;99.90;;;;;;8376309;28;20180;-80
2022/11/25 12:30:37;;;;;;;7.17;4.07;;;9.50;99.90;;;;;;8369104;28;20197;-80
2022/11/25 12:34:47;;;;;;;10.10;4.20;;;9.60;1.00;;;;;;8374329;28;20308;-80
2022/11/25 12:38:55;;;;;;;7.80;4.67;;;9.70;1.00;;;;;;8370817;28;20215;-80
2022/11/25 12:43:12;;;;;;;7.83;4.53;;;9.90;1.00;;;;;;8378340;28;20193;-80
2022/11/25 12:47:13;;;;;;;7.27;5.07;;;10.00;1.00;;;;;;8379484;28;20173;-80
2022/11/25 12:51:33;;;;;;;9.07;5.33;;;10.00;99.90;;;;;;8377760;28;20177;-80
2022/11/25 12:55:36;;;;;;;6.60;4.53;;;10.00;1.00;;;;;;8375037;28;20363;-80
2022/11/25 12:59:58;;;;;;;7.77;4.47;;;10.00;1.00;;;;;;8371608;28;20201;-80
2022/11/25 13:04:08;;;;;;;8.03;5.23;;;10.10;1.00;;;;;;8378570;28;20286;-80
2022/11/25 13:08:50;;;;;;;7.77;4.43;;;10.20;1.00;;;;;;8378849;28;20217;-80
2022/11/25 13:13:19;;;;;;;6.50;4.00;;;10.30;1.00;;;;;;8385941;28;20262;-79
2022/11/25 13:17:22;;;;;;;7.67;4.63;;;10.30;1.00;;;;;;8374610;28;20305;-79
2022/11/25 13:21:23;;;;;;;7.37;4.10;;;10.40;1.00;;;;;;8372468;28;20174;-79
2022/11/25 13:25:25;;;;;;;10.00;4.63;;;10.40;1.00;;;;;;8367541;28;20178;-80
2022/11/25 13:29:25;;;;;;;7.37;4.60;;;10.40;99.90;;;;;;8375763;28;20200;-79
2022/11/25 13:33:26;;;;;;;8.37;5.30;;;10.40;99.90;;;;;;8369929;28;20181;-79
2022/11/25 13:37:36;;;;;;;9.50;4.80;;;10.30;99.90;;;;;;8375097;28;20319;-79
2022/11/25 13:41:43;;;;;;;6.50;3.80;;;10.20;99.90;;;;;;8371337;28;20209;-79
2022/11/25 13:45:44;;;;;;;7.87;4.43;;;10.10;1.00;;;;;;8376629;28;20208;-80
2022/11/25 13:49:55;;;;;;;12.20;5.67;;;10.00;1.00;;;;;;8373573;28;21046;-79
2022/11/25 13:54:01;;;;;;;9.07;4.57;;;10.10;1.00;;;;;;8369524;28;20182;-80
2022/11/25 13:58:28;;;;;;;6.97;4.60;;;10.00;1.00;;;;;;8366008;28;20219;-79
2022/11/25 14:02:28;;;;;;;7.83;4.43;;;10.00;99.90;;;;;;8360583;28;20240;-79
2022/11/25 14:06:57;;;;;;;6.57;4.30;;;9.90;99.90;;;;;;8369792;28;20207;-80
2022/11/25 14:11:10;;;;;;;6.67;4.10;;;9.90;99.90;;;;;;8371210;28;20182;-80
2022/11/25 14:15:26;;;;;;;7.23;4.00;;;9.80;99.90;;;;;;8367514;28;20189;-79
2022/11/25 14:19:45;;;;;;;31.60;15.43;;;9.70;1.00;;;;;;8370013;28;20204;-80
2022/11/25 14:24:01;;;;;;;8.73;5.13;;;9.40;99.90;;;;;;8370872;28;20180;-80
2022/11/25 14:28:11;;;;;;;15.13;7.33;;;9.10;99.90;;;;;;8373301;28;20231;-79
2022/11/25 14:32:22;;;;;;;30.77;14.23;;;8.80;99.90;;;;;;8376778;28;20180;-79
2022/11/25 14:36:43;;;;;;;52.13;27.93;;;8.50;99.90;;;;;;8374128;28;20288;-79
2022/11/25 14:40:51;;;;;;;51.60;26.10;;;8.20;99.90;;;;;;8376672;28;20233;-79
2022/11/25 14:44:58;;;;;;;33.37;15.50;;;7.90;99.90;;;;;;8373983;28;20182;-80
2022/11/25 14:49:01;;;;;;;17.27;9.57;;;7.60;1.00;;;;;;8375316;28;20178;-79
2022/11/25 14:53:07;;;;;;;11.60;5.73;;;7.20;1.00;;;;;;8379607;28;20189;-79
2022/11/25 14:57:08;;;;;;;7.07;4.23;;;6.90;80.30;;;;;;8369927;28;20216;-78
2022/11/25 15:01:18;;;;;;;5.10;3.10;;;6.50;99.90;;;;;;8371474;28;20182;-79
2022/11/25 15:05:25;;;;;;;5.37;3.37;;;6.20;1.00;;;;;;8383491;28;20180;-79
2022/11/25 15:09:31;;;;;;;5.53;3.57;;;5.90;1.00;;;;;;8368514;28;20182;-79
2022/11/25 15:13:41;;;;;;;7.37;3.70;;;5.60;99.90;;;;;;8381430;28;20177;-79
2022/11/25 15:17:42;;;;;;;7.17;3.90;;;5.30;1.00;;;;;;8370871;28;20738;-81
2022/11/25 15:21:44;;;;;;;5.37;2.93;;;5.10;16.30;;;;;;8374029;28;20196;-79
2022/11/25 15:25:52;;;;;;;5.77;2.97;;;4.90;99.90;;;;;;8379417;28;20186;-79
2022/11/25 15:29:55;;;;;;;5.50;2.83;;;4.70;99.90;;;;;;8371939;28;20386;-79
2022/11/25 15:34:00;;;;;;;4.57;3.33;;;4.50;99.90;;;;;;8375604;28;20329;-79
2022/11/25 15:38:34;;;;;;;6.10;4.00;;;4.30;1.00;;;;;;8371963;28;20205;-78
2022/11/25 15:42:35;;;;;;;10.13;6.30;;;4.10;99.90;;;;;;8374931;28;20241;-78
2022/11/25 15:46:36;;;;;;;12.97;8.47;;;3.90;99.90;;;;;;8373580;28;20185;-80
2022/11/25 15:50:40;;;;;;;10.90;6.70;;;3.80;1.00;;;;;;8370561;28;20264;-77
2022/11/25 15:54:50;;;;;;;10.70;6.20;;;3.70;99.90;;;;;;8378969;28;20205;-78
2022/11/25 15:58:50;;;;;;;8.97;5.13;;;3.60;99.90;;;;;;8373733;28;20379;-78
2022/11/25 16:02:56;;;;;;;9.77;6.13;;;3.40;1.00;;;;;;8369900;28;20181;-78
2022/11/25 16:07:01;;;;;;;9.53;6.17;;;3.30;99.90;;;;;;8371062;28;20178;-78
2022/11/25 16:11:18;;;;;;;8.93;5.13;;;3.20;1.00;;;;;;8371166;28;20181;-79
2022/11/25 16:15:39;;;;;;;11.33;6.10;;;3.10;99.90;;;;;;8369050;28;20263;-79
2022/11/25 16:19:46;;;;;;;11.53;5.80;;;3.00;49.30;;;;;;8383761;28;20308;-79
2022/11/25 16:24:11;;;;;;;8.30;4.80;;;2.90;1.00;;;;;;8367957;28;20181;-79
2022/11/25 16:28:31;;;;;;;9.87;5.33;;;2.80;94.00;;;;;;8379219;28;20202;-78
2022/11/25 16:32:32;;;;;;;8.00;5.60;;;2.70;61.20;;;;;;8374804;28;20319;-79
2022/11/25 16:36:33;;;;;;;9.60;6.43;;;2.60;99.90;;;;;;8369452;28;20203;-79
2022/11/25 16:40:38;;;;;;;12.53;6.23;;;2.50;1.00;;;;;;8369803;28;20178;-79
2022/11/25 16:44:39;;;;;;;17.30;9.83;;;2.40;99.90;;;;;;8358138;28;20189;-79
2022/11/25 16:48:40;;;;;;;19.33;10.30;;;2.30;99.90;;;;;;8368213;28;20189;-79
2022/11/25 16:52:41;;;;;;;15.80;9.70;;;2.10;99.90;;;;;;8375664;28;20193;-79
2022/11/25 16:56:43;;;;;;;23.30;12.53;;;2.00;99.90;;;;;;8376826;28;20479;-79
2022/11/25 17:00:51;;;;;;;36.40;17.77;;;1.80;1.00;;;;;;8367895;28;20273;-79
2022/11/25 17:04:52;;;;;;;94.07;39.43;;;1.80;1.00;;;;;;8357309;28;20209;-79
2022/11/25 17:08:53;;;;;;;85.90;38.13;;;1.70;99.90;;;;;;8373734;28;20193;-79
2022/11/25 17:12:55;;;;;;;69.80;32.70;;;1.70;99.90;;;;;;8376204;28;20207;-79
2022/11/25 17:17:00;;;;;;;53.53;24.20;;;1.70;99.90;;;;;;8373393;28;20212;-79
2022/11/25 17:21:01;;;;;;;25.03;12.10;;;1.60;99.90;;;;;;8365562;28;20181;-79
2022/11/25 17:25:01;;;;;;;17.50;10.10;;;1.40;88.10;;;;;;8369336;28;20196;-79
2022/11/25 17:29:06;;;;;;;26.17;13.17;;;1.30;97.20;;;;;;8374698;28;20250;-81
2022/11/25 17:33:14;;;;;;;41.27;21.57;;;1.20;99.90;;;;;;8372820;28;20197;-79
2022/11/25 17:37:24;;;;;;;72.27;34.47;;;1.10;99.90;;;;;;8371356;28;20209;-79
2022/11/25 17:41:27;;;;;;;59.63;30.53;;;1.10;99.90;;;;;;8364088;28;20193;-79
2022/11/25 17:45:28;;;;;;;60.00;29.17;;;1.10;99.90;;;;;;8375804;28;20185;-80
2022/11/25 17:49:29;;;;;;;64.10;30.07;;;1.00;99.90;;;;;;8371195;28;20181;-80
2022/11/25 17:53:30;;;;;;;58.23;29.30;;;0.90;99.90;;;;;;8371651;28;20265;-80
2022/11/25 17:57:30;;;;;;;48.60;25.10;;;0.80;99.90;;;;;;8368913;28;20219;-81
2022/11/25 18:01:31;;;;;;;45.10;22.83;;;0.70;99.90;;;;;;8364335;28;20192;-80
2022/11/25 18:05:33;;;;;;;45.50;22.23;;;0.60;99.90;;;;;;8365590;28;20186;-80
2022/11/25 18:09:34;;;;;;;66.53;31.87;;;0.60;99.90;;;;;;8368075;28;20204;-80
2022/11/25 18:13:38;;;;;;;64.37;32.53;;;0.50;99.90;;;;;;8370343;28;20188;-80
2022/11/25 18:17:40;;;;;;;49.87;26.47;;;0.60;99.90;;;;;;8370602;28;20483;-80
2022/11/25 18:21:41;;;;;;;53.37;27.13;;;0.60;99.90;;;;;;8371785;28;20677;-80
2022/11/25 18:25:43;;;;;;;53.07;28.20;;;0.70;99.90;;;;;;8372712;28;20186;-81
2022/11/25 18:29:43;;;;;;;64.87;32.47;;;0.70;99.90;;;;;;8370572;28;20246;-80
2022/11/25 18:33:44;;;;;;;82.20;43.53;;;0.80;99.90;;;;;;8370124;28;20189;-80
2022/11/25 18:37:45;;;;;;;78.43;42.03;;;0.70;99.90;;;;;;8364839;28;20206;-80
2022/11/25 18:41:47;;;;;;;76.83;37.27;;;0.50;99.90;;;;;;8366711;28;20239;-80
2022/11/25 18:45:48;;;;;;;50.20;27.37;;;0.30;99.90;;;;;;8369552;28;20204;-80
2022/11/25 18:49:49;;;;;;;38.10;20.17;;;0.20;99.90;;;;;;8372772;28;20295;-80
2022/11/25 18:53:50;;;;;;;29.47;17.03;;;0.10;99.90;;;;;;8363749;28;20193;-80
2022/11/25 18:57:51;;;;;;;30.37;17.20;;;0.00;99.90;;;;;;8365759;28;20228;-80
2022/11/25 19:01:52;;;;;;;33.07;18.77;;;-0.10;99.90;;;;;;8372860;28;20185;-80
2022/11/25 19:05:54;;;;;;;38.13;20.17;;;-0.10;99.90;;;;;;8362626;28;20210;-80
2022/11/25 19:09:55;;;;;;;70.07;32.47;;;-0.10;99.90;;;;;;8368522;28;20212;-80
2022/11/25 19:14:25;;;;;;;103.03;52.13;;;0.10;99.90;;;;;;8378472;28;20181;-80
2022/11/25 19:18:26;;;;;;;120.50;61.43;;;0.30;99.90;;;;;;8374788;28;20212;-80
2022/11/25 19:22:29;;;;;;;107.27;56.97;;;0.50;99.90;;;;;;8378343;28;20177;-80
2022/11/25 19:26:37;;;;;;;122.73;60.83;;;0.70;99.90;;;;;;8373269;28;20189;-80
2022/11/25 19:30:38;;;;;;;107.93;57.40;;;0.90;99.90;;;;;;8377891;28;20275;-80
2022/11/25 19:34:42;;;;;;;100.47;52.67;;;1.00;99.90;;;;;;8372552;28;20188;-80
2022/11/25 19:38:43;;;;;;;80.17;45.73;;;1.10;99.90;;;;;;8375537;28;20241;-80
2022/11/25 19:42:47;;;;;;;89.77;47.47;;;1.10;99.90;;;;;;8375162;28;20196;-80
2022/11/25 19:46:49;;;;;;;97.23;50.77;;;1.20;99.90;;;;;;8371367;28;20189;-79
2022/11/25 19:50:58;;;;;;;88.53;46.10;;;1.30;99.90;;;;;;8376059;28;20186;-79
2022/11/25 19:54:59;;;;;;;53.37;28.70;;;1.50;99.90;;;;;;8370941;28;20260;-79
2022/11/25 19:58:59;;;;;;;93.13;44.40;;;1.70;99.90;;;;;;8366862;28;20217;-79
2022/11/25 20:03:00;;;;;;;74.70;41.20;;;2.00;99.90;;;;;;8368142;28;20181;-79
2022/11/25 20:07:01;;;;;;;72.27;41.00;;;2.10;99.90;;;;;;8374966;28;20188;-79
2022/11/25 20:11:02;;;;;;;69.53;38.50;;;2.20;99.90;;;;;;8374127;28;20259;-80
2022/11/25 20:15:04;;;;;;;104.20;51.53;;;2.20;99.90;;;;;;8374993;28;20178;-81
2022/11/25 20:19:05;;;;;;;78.33;42.43;;;2.30;99.90;;;;;;8368949;28;20206;-80
2022/11/25 20:23:27;;;;;;;72.73;42.57;;;2.40;99.90;;;;;;8373198;28;20178;-80
2022/11/25 20:27:28;;;;;;;64.10;38.00;;;2.40;99.90;;;;;;8386159;28;20255;-81
2022/11/25 20:31:29;;;;;;;59.10;34.50;;;2.50;99.90;;;;;;8379118;28;20200;-81
2022/11/25 20:35:30;;;;;;;50.50;28.33;;;2.60;99.90;;;;;;8375172;28;20182;-78
2022/11/25 20:39:31;;;;;;;44.50;27.13;;;2.80;99.90;;;;;;8370369;28;20190;-78
2022/11/25 20:43:35;;;;;;;46.20;27.17;;;3.10;99.90;;;;;;8372019;28;20177;-80
2022/11/25 20:47:38;;;;;;;45.27;25.80;;;3.40;99.90;;;;;;8375549;28;20209;-80
2022/11/25 20:51:40;;;;;;;45.03;25.57;;;3.60;99.90;;;;;;8372979;28;20190;-80
2022/11/25 20:55:41;;;;;;;39.37;24.20;;;3.80;99.90;;;;;;8373837;28;20303;-81
2022/11/25 20:59:43;;;;;;;43.13;23.77;;;3.90;99.90;;;;;;8368230;28;20205;-80
2022/11/25 21:03:45;;;;;;;39.73;24.73;;;4.00;99.90;;;;;;8372519;28;20188;-80
2022/11/25 21:07:48;;;;;;;38.63;21.80;;;4.10;99.90;;;;;;8354516;28;20189;-79
2022/11/25 21:11:50;;;;;;;41.10;23.83;;;4.20;99.90;;;;;;8366729;28;20185;-79
2022/11/25 21:15:55;;;;;;;44.13;22.70;;;4.30;99.90;;;;;;8370133;28;20216;-79
2022/11/25 21:19:56;;;;;;;33.40;22.00;;;4.40;99.90;;;;;;8370011;28;20309;-80
2022/11/25 21:24:01;;;;;;;38.27;22.27;;;4.50;99.90;;;;;;8365126;28;20184;-79